Tiempo atmosférico en la estación meteorológica de Almazul, Soria (1000 m.)

Fecha
DESCASC
Temp. máxima en grados centígrados (hora)
DESCASC
Temp. mínima en grados centígrados (hora)
DESCASC
Temp. media en grados centígrados
DESCASC
Racha de viento máxima en m/sg (hora)
DESCASC
Velocidad máxima media en intervalos de 10 minutos(hora)
DESCASC
Precipitaciones diarias en mm
DESCASC
Precipitaciones de 00:00 a 06:00 en mm
DESCASC
Precipitaciones de 06:00 a 12:00 en mm
DESCASC
Precipitaciones de 12:00 a 18:00 en mm
DESCASC
Precipitaciones de 18:00 a 24:00 en mm
DESCASC
21-08-2017 35.4 (17:50) 12 (07:00) 23.7 12.5 (19:50) 8.06 (19:50) 0 0 0 0 0
20-08-2017 29.3 (18:10) 11.7 (06:30) 20.5 10.28 (20:00) 8.06 (20:40) 0 0 0 0 0
19-08-2017 29.7 (16:00) 13.5 (07:40) 21.6 12.78 (02:00) 10.56 (02:00) 0 0 0 0 0
18-08-2017 32.5 (15:50) 16.3 (08:00) 24.4 17.5 (19:50) 12.22 (18:30) 0 0 0 0 0
17-08-2017 35.3 (17:50) 13.8 (00:00) 24.5 11.67 (19:20) 7.78 (20:00) 0 0 0 0 0
16-08-2017 31.8 (17:20) 14.3 (00:00) 23 11.11 (22:00) 8.61 (22:10) 0 0 0 0 0
15-08-2017 32.4 (15:20) 15.8 (00:00) 24.1 13.61 (15:10) 8.61 (15:10) 0 0 0 0 0
14-08-2017 33.9 (19:10) 14.8 (07:50) 24.4 12.22 (19:40) 8.61 (23:20) 0 0 0 0 0
13-08-2017 31.1 (15:50) 11.4 (00:00) 21.3 11.11 (18:20) 8.33 (18:20) 0 0 0 0 0
12-08-2017 30.5 (18:40) 9.1 (00:00) 19.8 8.89 (01:00) 6.94 (01:00) 0 0 0 0 0
11-08-2017 22.9 (17:10) 7.4 (00:00) 15.1 16.11 (19:50) 9.72 (20:10) 0 0 0 0 0
10-08-2017 20 (16:50) 5.6 (00:00) 12.8 14.44 (15:50) 10.28 (20:10) 0 0 0 0 0
09-08-2017 17.1 (15:00) 8 (00:00) 12.6 14.17 (16:50) 10.83 (17:10) 0 0 0 0 0
08-08-2017 22.5 (00:00) 12.2 (00:00) 17.3 12.78 (20:50) 10.28 (20:50) 0 0 0 0 0
07-08-2017 32.7 (18:10) 16.7 (00:00) 24.7 16.11 (17:40) 9.17 (18:40) 0 0 0 0 0
06-08-2017 28.2 (17:20) 13.7 (00:00) 21 13.89 (03:10) 11.11 (02:50) 0 0 0 0 0
05-08-2017 31.9 (15:00) 17 (00:00) 24.4 15 (19:50) 11.39 (19:50) 0 0 0 0 0
04-08-2017 34.5 (17:30) 19.2 (00:00) 26.9 9.72 (19:30) 6.94 (19:50) 0 0 0 0 0
03-08-2017 35.8 (18:30) 15.1 (00:00) 25.4 7.78 (14:50) 5.28 (00:20) 0 0 0 0 0
02-08-2017 31.4 (16:10) 17.5 (00:00) 24.4 15.28 (13:50) 11.11 (13:50) 1.2 0 0 1.2 0
01-08-2017 31.2 (19:10) 14.6 (00:00) 22.9 11.94 (16:20) 7.22 (17:00) 0 0 0 0 0
31-07-2017 32.6 (17:00) 17.1 (00:00) 24.8 16.39 (15:10) 10.28 (14:40) 0 0 0 0 0
30-07-2017 33.8 (17:00) 18.5 (00:00) 26.1 16.67 (16:50) 11.39 (16:20) 0 0 0 0 0
29-07-2017 33.5 (17:30) 14.8 (00:00) 24.2 11.39 (16:00) 7.5 (16:00) 0 0 0 0 0
28-07-2017 33.5 (18:00) 13.8 (00:00) 23.7 11.94 (16:00) 7.22 (20:50) 0 0 0 0 0
27-07-2017 32.9 (17:30) 12.5 (00:00) 22.7 12.22 (14:10) 7.78 (14:10) 0 0 0 0 0
26-07-2017 28.6 (16:40) 8.9 (00:00) 18.8 10.56 (19:50) 7.5 (20:10) 0 0 0 0 0
25-07-2017 21.5 (16:00) 11.3 (00:00) 16.4 14.17 (03:50) 11.39 (20:30) 0 0 0 0 0
24-07-2017 25.7 (16:20) 13.2 (00:00) 19.5 16.39 (20:00) 12.78 (20:30) 0 0 0 0 0
23-07-2017 30.2 (16:50) 11.9 (00:00) 21.1 11.67 (23:20) 9.72 (23:40) 0 0 0 0 0

Gráficas

Temp. máximas Temp. mínimas Temp. medias Precipitaciones Rachas de viento máximas Velocidades máximas media en intervalos de 10 minutos

Datos horarios

Fecha y hora oficial Temperatura (ºC) Velocidad del viento (km/h) Dirección del viento Racha (km/h) Dirección de racha Precipitación (mm) Presión (hPa) Tendencia (hPa) Humedad (%)
2017-08-21 23:00:00 24.8 22 Sudeste 33 Este 0 -- -- 28
2017-08-21 22:00:00 24.7 23 Este 30 Este 0 -- -- 29
2017-08-21 21:00:00 26.6 21 Este 37 Sudeste 0 -- -- 28
2017-08-21 20:00:00 30 27 Sudeste 45 Sudeste 0 -- -- 24
2017-08-21 19:00:00 32.3 23 Sudeste 33 Sudeste 0 -- -- 20
2017-08-21 18:00:00 35.1 12 Sur 24 Sur 0 -- -- 16
2017-08-21 17:00:00 34.5 11 Sur 24 Sur 0 -- -- 17
2017-08-21 16:00:00 33.2 8 Sudeste 22 Sur 0 -- -- 19
2017-08-21 15:00:00 31.4 11 Sur 27 Sudeste 0 -- -- 20
2017-08-21 14:00:00 29.7 12 Sudeste 22 Sur 0 -- -- 22
2017-08-21 13:00:00 29.2 10 Sur 22 Sur 0 -- -- 23
2017-08-21 12:00:00 27.7 9 Sur 16 Sudeste 0 -- -- 25
2017-08-21 11:00:00 25.3 7 Sur 15 Sur 0 -- -- 28
2017-08-21 10:00:00 22.8 7 Sur 11 Sudeste 0 -- -- 31
2017-08-21 09:00:00 18.6 4 Norte 5 Norte 0 -- -- 37
2017-08-21 08:00:00 13.7 3 Norte 5 Noroeste 0 -- -- 47
2017-08-21 07:00:00 12 4 Norte 6 Norte 0 -- -- 51
2017-08-21 06:00:00 13.4 4 Norte 7 Este 0 -- -- 47
2017-08-21 05:00:00 15 0 Calma 8 Este 0 -- -- 43
2017-08-21 04:00:00 15.5 3 Este 12 Este 0 -- -- 42
2017-08-21 03:00:00 16.4 0 Calma 11 Este 0 -- -- 43
2017-08-21 02:00:00 17.4 0 Calma 9 Norte 0 -- -- 39
2017-08-21 01:00:00 17.1 12 Norte 17 Norte 0 -- -- 39
2017-08-21 00:00:00 18.9 8 Norte 21 Nordeste 0 -- -- 34
2017-08-20 23:00:00 20.1 16 Norte 27 Nordeste 0 -- -- 31
2017-08-20 22:00:00 21.3 19 Nordeste 29 Nordeste 0 -- -- 30
2017-08-20 21:00:00 23.5 20 Nordeste 37 Nordeste 0 -- -- 28
2017-08-20 20:00:00 26.4 28 Nordeste 37 Nordeste 0 -- -- 23
2017-08-20 19:00:00 28.2 25 Nordeste 34 Nordeste 0 -- -- 18
2017-08-20 18:00:00 29.1 18 Nordeste 28 Nordeste 0 -- -- 15
2017-08-20 17:00:00 28.6 19 Nordeste 31 Nordeste 0 -- -- 18
2017-08-20 16:00:00 28.3 14 Norte 30 Norte 0 -- -- 14
2017-08-20 15:00:00 27 19 Norte 35 Nordeste 0 -- -- 12
2017-08-20 14:00:00 26.4 14 Nordeste 26 Nordeste 0 -- -- 14
2017-08-20 13:00:00 24.7 14 Norte 29 Nordeste 0 -- -- 15
2017-08-20 12:00:00 24.1 19 Nordeste 30 Nordeste 0 -- -- 11
2017-08-20 11:00:00 22.2 24 Nordeste 32 Nordeste 0 -- -- 11
2017-08-20 10:00:00 20.8 17 Norte 27 Norte 0 -- -- 12
2017-08-20 09:00:00 17.1 5 Norte 9 Norte 0 -- -- 24
2017-08-20 08:00:00 12.9 6 Norte 12 Norte 0 -- -- 32
2017-08-20 07:00:00 12.3 4 Nordeste 14 Norte 0 -- -- 34
2017-08-20 06:00:00 12.3 5 Noroeste 12 Norte 0 -- -- 51
2017-08-20 05:00:00 13.3 6 Norte 21 Nordeste 0 -- -- 51
2017-08-20 04:00:00 13.5 18 Norte 29 Norte 0 -- -- 69
2017-08-20 03:00:00 14.4 16 Nordeste 29 Norte 0 -- -- 66
2017-08-20 02:00:00 14.5 20 Norte 27 Nordeste 0 -- -- 65
2017-08-20 01:00:00 15.1 11 Norte 26 Norte 0 -- -- 63
2017-08-20 00:00:00 16.4 21 Norte 34 Nordeste 0 -- -- 59
2017-08-19 23:00:00 17.8 30 Nordeste 40 Nordeste 0 -- -- 55
2017-08-19 22:00:00 19.1 29 Nordeste 36 Nordeste 0 -- -- 52
2017-08-19 21:00:00 21.3 28 Nordeste 39 Nordeste 0 -- -- 46
2017-08-19 20:00:00 25 25 Nordeste 39 Nordeste 0 -- -- 39
2017-08-19 19:00:00 26.7 24 Nordeste 34 Nordeste 0 -- -- 37
2017-08-19 18:00:00 27.8 24 Nordeste 34 Nordeste 0 -- -- 36
2017-08-19 17:00:00 27.4 27 Norte 37 Norte 0 -- -- 37
2017-08-19 16:00:00 29.7 12 Sur 23 Sur 0 -- -- 33
2017-08-19 15:00:00 27.9 6 Este 21 Nordeste 0 -- -- 37
2017-08-19 14:00:00 27.9 5 Sur 23 Oeste 0 -- -- 38
2017-08-19 13:00:00 25.3 12 Norte 23 Oeste 0 -- -- 43
2017-08-19 12:00:00 22.9 7 Nordeste 23 Nordeste 0 -- -- 47
2017-08-19 11:00:00 21.7 8 Este 19 Nordeste 0 -- -- 52
2017-08-19 10:00:00 19.5 9 Nordeste 19 Nordeste 0 -- -- 59
2017-08-19 09:00:00 16.6 16 Nordeste 23 Nordeste 0 -- -- 70
2017-08-19 08:00:00 14 7 Nordeste 17 Nordeste 0 -- -- 79
2017-08-19 07:00:00 13.7 11 Norte 38 Nordeste 0 -- -- 80
2017-08-19 06:00:00 14.6 32 Nordeste 44 Nordeste 0 -- -- 78
2017-08-19 05:00:00 14.7 30 Nordeste 42 Nordeste 0 -- -- 78
2017-08-19 04:00:00 15 24 Nordeste 40 Nordeste 0 -- -- 78
2017-08-19 03:00:00 15.8 17 Norte 46 Nordeste 0 -- -- 75
2017-08-19 02:00:00 16.4 38 Nordeste 46 Nordeste 0 -- -- 73
2017-08-19 01:00:00 16.4 33 Nordeste 45 Nordeste 0 -- -- 74
2017-08-19 00:00:00 17 26 Nordeste 40 Nordeste 0 -- -- 75
2017-08-18 23:00:00 17.7 21 Nordeste 44 Nordeste 0 -- -- 74
2017-08-18 22:00:00 18.3 35 Nordeste 48 Nordeste 0 -- -- 72
2017-08-18 21:00:00 19.9 40 Nordeste 49 Nordeste 0 -- -- 65
2017-08-18 20:00:00 23.1 38 Nordeste 63 Nordeste 0 -- -- 53
2017-08-18 19:00:00 25.3 44 Nordeste 56 Nordeste 0 -- -- 46
2017-08-18 18:00:00 27.1 38 Nordeste 51 Nordeste 0 -- -- 42
2017-08-18 17:00:00 29.4 33 Nordeste 45 Nordeste 0 -- -- 37
2017-08-18 16:00:00 32.1 23 Oeste 38 Noroeste 0 -- -- 25
2017-08-18 15:00:00 31.8 20 Noroeste 33 Noroeste 0 -- -- 26
2017-08-18 14:00:00 30.8 18 Noroeste 33 Noroeste 0 -- -- 27
2017-08-18 13:00:00 29.8 10 Oeste 22 Norte 0 -- -- 30
2017-08-18 12:00:00 28.8 7 Norte 15 Oeste 0 -- -- 33
2017-08-18 11:00:00 27.3 13 Oeste 21 Oeste 0 -- -- 34
2017-08-18 10:00:00 27 5 Sur 10 Sur 0 -- -- 41
2017-08-18 09:00:00 21.4 8 Norte 11 Norte 0 -- -- 51
2017-08-18 08:00:00 16.3 8 Norte 11 Norte 0 -- -- 64
2017-08-18 07:00:00 17.3 4 Nordeste 10 Norte 0 -- -- 60
2017-08-18 06:00:00 16.7 4 Norte 8 Norte 0 -- -- 61
2017-08-18 05:00:00 17.6 8 Norte 9 Norte 0 -- -- 59
2017-08-18 04:00:00 18.8 0 Calma 10 Nordeste 0 -- -- 55
2017-08-18 03:00:00 19.4 9 Norte 11 Norte 0 -- -- 53
2017-08-18 02:00:00 20.3 6 Norte 12 Norte 0 -- -- 50
2017-08-18 01:00:00 20.5 9 Norte 12 Norte 0 -- -- 49
2017-08-18 00:00:00 22 5 Nordeste 13 Norte 0 -- -- 45
2017-08-17 23:00:00 22.8 5 Noroeste 22 Nordeste 0 -- -- 43
2017-08-17 22:00:00 25.6 17 Nordeste 25 Este 0 -- -- 36
2017-08-17 21:00:00 27.3 17 Este 36 Este 0 -- -- 32
2017-08-17 20:00:00 29.5 28 Sudeste 42 Sudeste 0 -- -- 30
2017-08-17 19:00:00 34.5 11 Sur 23 Oeste 0 -- -- 25
2017-08-17 18:00:00 34.3 9 Noroeste 31 Sudeste 0 -- -- 24
2017-08-17 17:00:00 33.9 12 Sur 20 Sudoeste 0 -- -- 24
2017-08-17 16:00:00 32.9 7 Sudoeste 29 Sur 0 -- -- 24
2017-08-17 15:00:00 32 12 Sur 26 Sudeste 0 -- -- 29
2017-08-17 14:00:00 30.4 8 Sur 19 Sudoeste 0 -- -- 32
2017-08-17 13:00:00 29.2 8 Sur 22 Sur 0 -- -- 35
2017-08-17 12:00:00 27.5 15 Sur 22 Sur 0 -- -- 35
2017-08-17 11:00:00 25.8 7 Sur 12 Sur 0 -- -- 38
2017-08-17 10:00:00 24.2 2 Sudoeste 7 Norte 0 -- -- 41
2017-08-17 09:00:00 19.6 4 Norte 12 Norte 0 -- -- 52
2017-08-17 08:00:00 15.1 5 Norte 8 Norte 0 -- -- 63
2017-08-17 07:00:00 14.4 7 Norte 8 Norte 0 -- -- 65
2017-08-17 06:00:00 14.7 4 Este 9 Norte 0 -- -- 64
2017-08-17 05:00:00 15.4 6 Norte 19 Nordeste 0 -- -- 61
2017-08-17 04:00:00 16.8 18 Nordeste 28 Nordeste 0 -- -- 59
2017-08-17 03:00:00 16.5 13 Nordeste 21 Norte 0 -- -- 61
2017-08-17 02:00:00 17.1 14 Norte 19 Norte 0 -- -- 62
2017-08-17 01:00:00 17.5 13 Norte 18 Nordeste 0 -- -- 64
2017-08-17 00:00:00 18.6 12 Norte 19 Nordeste 0 -- -- 60
2017-08-16 23:00:00 19.9 12 Nordeste 40 Nordeste 0 -- -- 56
2017-08-16 22:00:00 21 31 Nordeste 40 Nordeste 0 -- -- 54
2017-08-16 21:00:00 23.7 22 Nordeste 31 Nordeste 0 -- -- 50
2017-08-16 20:00:00 26.7 24 Nordeste 37 Nordeste 0 -- -- 40
2017-08-16 19:00:00 28.6 26 Nordeste 39 Norte 0 -- -- 35
2017-08-16 18:00:00 31 10 Norte 31 Noroeste 0 -- -- 26
2017-08-16 17:00:00 30.8 14 Noroeste 29 Noroeste 0 -- -- 23
2017-08-16 16:00:00 30.7 11 Sudoeste 29 Oeste 0 -- -- 23
2017-08-16 15:00:00 29.8 17 Oeste 30 Sudoeste 0 -- -- 25
2017-08-16 14:00:00 28 14 Noroeste 26 Noroeste 0 -- -- 28
2017-08-16 13:00:00 28 7 Noroeste 18 Noroeste 0 -- -- 31
2017-08-16 12:00:00 27.3 4 Noroeste 13 Noroeste 0 -- -- 36
2017-08-16 11:00:00 24.1 6 Oeste 16 Sudoeste 0 -- -- 48
2017-08-16 10:00:00 20.4 4 Norte 7 Norte 0 -- -- 69
2017-08-16 09:00:00 17.8 5 Norte 9 Norte 0 -- -- 77
2017-08-16 08:00:00 15 3 Noroeste 10 Norte 0 -- -- 85
2017-08-16 07:00:00 14.9 2 Norte 8 Este 0 -- -- 85
2017-08-16 06:00:00 15.9 5 Nordeste 12 Este 0 -- -- 83
2017-08-16 05:00:00 16.8 9 Este 12 Este 0 -- -- 81
2017-08-16 04:00:00 16.3 10 Nordeste 15 Nordeste 0 -- -- 83
2017-08-16 03:00:00 17 10 Norte 13 Nordeste 0 -- -- 80
2017-08-16 02:00:00 17.5 10 Norte 17 Nordeste 0 -- -- 77
2017-08-16 01:00:00 17.8 14 Norte 15 Norte 0 -- -- 77
2017-08-16 00:00:00 18.8 12 Nordeste 21 Norte 0 -- -- 72
2017-08-15 23:00:00 20.5 14 Nordeste 21 Nordeste 0 -- -- 66
2017-08-15 22:00:00 22.6 10 Nordeste 19 Nordeste 0 -- -- 53
2017-08-15 21:00:00 24.8 13 Norte 31 Nordeste 0 -- -- 49
2017-08-15 20:00:00 27.3 25 Nordeste 34 Nordeste 0 -- -- 42
2017-08-15 19:00:00 30.1 15 Oeste 34 Oeste 0 -- -- 28
2017-08-15 18:00:00 29.8 26 Oeste 41 Oeste 0 -- -- 27
2017-08-15 17:00:00 31.7 28 Oeste 46 Oeste 0 -- -- 26
2017-08-15 16:00:00 32.3 24 Oeste 49 Sudoeste 0 -- -- 24
2017-08-15 15:00:00 31.6 27 Sudoeste 40 Sudoeste 0 -- -- 24
2017-08-15 14:00:00 30 17 Sudoeste 26 Sudoeste 0 -- -- 32
2017-08-15 13:00:00 28.9 12 Sur 20 Sur 0 -- -- 34
2017-08-15 12:00:00 27.9 6 Sudoeste 21 Sudoeste 0 -- -- 36
2017-08-15 11:00:00 25 15 Sudoeste 26 Sudoeste 0 -- -- 39
2017-08-15 10:00:00 23.3 9 Sur 12 Sur 0 -- -- 45
2017-08-15 09:00:00 21.5 4 Sur 8 Sur 0 -- -- 53
2017-08-15 08:00:00 16.3 0 Calma 10 Sudeste 0 -- -- 70
2017-08-15 07:00:00 17 12 Este 18 Este 0 -- -- 68
2017-08-15 06:00:00 16.7 14 Este 16 Este 0 -- -- 70
2017-08-15 05:00:00 18 13 Este 23 Sudeste 0 -- -- 65
2017-08-15 04:00:00 18.9 14 Sudeste 21 Sudeste 0 -- -- 61
2017-08-15 03:00:00 18.6 10 Este 14 Este 0 -- -- 61
2017-08-15 02:00:00 18.6 4 Nordeste 22 Nordeste 0 -- -- 60
2017-08-15 01:00:00 20.2 16 Nordeste 30 Nordeste 0 -- -- 55
2017-08-15 00:00:00 21.9 26 Nordeste 38 Nordeste 0 -- -- 48
2017-08-14 23:00:00 23.4 27 Nordeste 34 Nordeste 0 -- -- 42
2017-08-14 22:00:00 25.4 21 Nordeste 29 Norte 0 -- -- 35
2017-08-14 21:00:00 28.2 7 Oeste 36 Sudeste 0 -- -- 28
2017-08-14 20:00:00 29.8 23 Sudeste 44 Sudeste 0 -- -- 27
2017-08-14 19:00:00 32.8 14 Sudoeste 32 Sudoeste 0 -- -- 20
2017-08-14 18:00:00 33.2 17 Sur 39 Sur 0 -- -- 19
2017-08-14 17:00:00 32.9 22 Sur 38 Sudoeste 0 -- -- 20
2017-08-14 16:00:00 32.4 17 Sudoeste 34 Sur 0 -- -- 22
2017-08-14 15:00:00 32.1 10 Sur 34 Sudoeste 0 -- -- 22
2017-08-14 14:00:00 30.2 22 Sur 32 Sur 0 -- -- 26
2017-08-14 13:00:00 28.1 17 Sudoeste 30 Sudoeste 0 -- -- 31
2017-08-14 12:00:00 27.1 13 Sur 24 Sur 0 -- -- 36
2017-08-14 11:00:00 24.9 15 Sudoeste 27 Sudoeste 0 -- -- 41
2017-08-14 10:00:00 22.9 9 Sur 13 Sur 0 -- -- 51
2017-08-14 09:00:00 22 2 Sudeste 4 Sudeste 0 -- -- 55
2017-08-14 08:00:00 15.8 4 Norte 8 Norte 0 -- -- 75
2017-08-14 07:00:00 15.6 3 Sudeste 6 Este 0 -- -- 74
2017-08-14 06:00:00 16.3 5 Sudeste 15 Este 0 -- -- 72
2017-08-14 05:00:00 17.6 14 Este 15 Este 0 -- -- 68
2017-08-14 04:00:00 17.9 0 Calma 13 Este 0 -- -- 65
2017-08-14 03:00:00 19.4 3 Sudoeste 19 Sudoeste 0 -- -- 58
2017-08-14 02:00:00 20.6 10 Sur 15 Sudeste 0 -- -- 52
2017-08-14 01:00:00 20.9 3 Sudoeste 22 Este 0 -- -- 44
2017-08-14 00:00:00 20.2 12 Este 28 Este 0 -- -- 43
2017-08-13 23:00:00 22.3 14 Sudeste 24 Sudeste 0 -- -- 38
2017-08-13 22:00:00 22.2 10 Nordeste 26 Sudeste 0 -- -- 39
2017-08-13 21:00:00 24.1 17 Este 32 Este 0 -- -- 36
2017-08-13 20:00:00 25.8 22 Este 38 Sudeste 0 -- -- 34
2017-08-13 19:00:00 27.6 30 Sudeste 40 Sudeste 0 -- -- 31
2017-08-13 18:00:00 27.7 25 Sudeste 33 Este 0 -- -- 31
2017-08-13 17:00:00 29.1 5 Nordeste 16 Oeste 0 -- -- 26
2017-08-13 16:00:00 29.1 8 Nordeste 24 Sur 0 -- -- 26
2017-08-13 15:00:00 29.8 10 Oeste 32 Sur 0 -- -- 25
2017-08-13 14:00:00 28.4 13 Sudoeste 30 Sur 0 -- -- 28
2017-08-13 13:00:00 26.4 14 Sudeste 24 Sur 0 -- -- 34
2017-08-13 12:00:00 25.4 9 Sur 21 Sur 0 -- -- 37
2017-08-13 11:00:00 23.4 14 Sur 20 Sur 0 -- -- 37
2017-08-13 10:00:00 21.8 8 Sur 11 Sur 0 -- -- 41
2017-08-13 09:00:00 18.4 2 Norte 7 Nordeste 0 -- -- 52
2017-08-13 08:00:00 11.8 5 Norte 6 Norte 0 -- -- 71
2017-08-13 07:00:00 11.9 5 Norte 15 Norte 0 -- -- 69
2017-08-13 06:00:00 11.4 10 Norte 12 Norte 0 -- -- 72
2017-08-13 05:00:00 11.9 2 Nordeste 9 Norte 0 -- -- 71
2017-08-13 04:00:00 12.6 8 Norte 11 Norte 0 -- -- 73
2017-08-13 03:00:00 13.1 9 Norte 12 Norte 0 -- -- 72
2017-08-13 02:00:00 14.9 6 Norte 9 Nordeste 0 -- -- 63
2017-08-13 01:00:00 14.7 9 Norte 11 Norte 0 -- -- 64
2017-08-13 00:00:00 16.4 4 Nordeste 29 Nordeste 0 -- -- 59
2017-08-12 23:00:00 18.2 21 Nordeste 28 Nordeste 0 -- -- 53
2017-08-12 22:00:00 20 21 Nordeste 26 Nordeste 0 -- -- 44
2017-08-12 21:00:00 23.5 16 Nordeste 32 Nordeste 0 -- -- 28
2017-08-12 20:00:00 26.2 23 Nordeste 31 Nordeste 0 -- -- 24
2017-08-12 19:00:00 28.4 14 Nordeste 26 Sudeste 0 -- -- 21
2017-08-12 18:00:00 29.2 6 Oeste 21 Noroeste 0 -- -- 19
2017-08-12 17:00:00 29.1 7 Este 24 Este 0 -- -- 18
2017-08-12 16:00:00 28.3 4 Noroeste 17 Nordeste 0 -- -- 18
2017-08-12 15:00:00 26.7 9 Norte 19 Este 0 -- -- 18
2017-08-12 14:00:00 24.9 9 Norte 20 Norte 0 -- -- 18
2017-08-12 13:00:00 23.4 9 Norte 17 Nordeste 0 -- -- 15
2017-08-12 12:00:00 22.4 9 Norte 21 Norte 0 -- -- 12
2017-08-12 11:00:00 21.7 5 Norte 9 Norte 0 -- -- 10
2017-08-12 10:00:00 19.6 4 Noroeste 10 Sudoeste 0 -- -- 18
2017-08-12 09:00:00 16.4 3 Nordeste 9 Sudoeste 0 -- -- 34
2017-08-12 08:00:00 12.1 0 Calma 11 Este 0 -- -- 44
2017-08-12 07:00:00 11.4 13 Nordeste 23 Nordeste 0 -- -- 46
2017-08-12 06:00:00 10.2 5 Norte 12 Nordeste 0 -- -- 56
2017-08-12 05:00:00 11.1 11 Nordeste 18 Nordeste 0 -- -- 51
2017-08-12 04:00:00 11 8 Nordeste 22 Nordeste 0 -- -- 60
2017-08-12 03:00:00 10.5 3 Norte 15 Norte 0 -- -- 64
2017-08-12 02:00:00 11.3 7 Norte 27 Norte 0 -- -- 64
2017-08-12 01:00:00 12.4 25 Norte 32 Norte 0 -- -- 63
2017-08-12 00:00:00 12.6 19 Norte 41 Nordeste 0 -- -- 63
2017-08-11 23:00:00 13.6 23 Norte 39 Norte 0 -- -- 60
2017-08-11 22:00:00 14.8 28 Norte 40 Norte 0 -- -- 57
2017-08-11 21:00:00 17.1 24 Nordeste 43 Nordeste 0 -- -- 49
2017-08-11 20:00:00 19.7 34 Nordeste 58 Nordeste 0 -- -- 39
2017-08-11 19:00:00 21.6 26 Nordeste 37 Nordeste 0 -- -- 34
2017-08-11 18:00:00 22 26 Nordeste 36 Nordeste 0 -- -- 33
2017-08-11 17:00:00 22.2 23 Nordeste 36 Nordeste 0 -- -- 30
2017-08-11 16:00:00 22.3 17 Nordeste 34 Nordeste 0 -- -- 30
2017-08-11 15:00:00 21.5 19 Nordeste 32 Norte 0 -- -- 31
2017-08-11 14:00:00 20.4 10 Nordeste 27 Norte 0 -- -- 31
2017-08-11 13:00:00 18 14 Nordeste 26 Nordeste 0 -- -- 39
2017-08-11 12:00:00 16.5 15 Nordeste 29 Nordeste 0 -- -- 43
2017-08-11 11:00:00 14.7 17 Nordeste 29 Nordeste 0 -- -- 50
2017-08-11 10:00:00 12.6 21 Norte 31 Nordeste 0 -- -- 59
2017-08-11 09:00:00 10.7 14 Nordeste 25 Nordeste 0 -- -- 66
2017-08-11 08:00:00 8.7 17 Nordeste 22 Nordeste 0 -- -- 75
2017-08-11 07:00:00 7.8 8 Nordeste 14 Nordeste 0 -- -- 78
2017-08-11 06:00:00 7.4 3 Oeste 18 Norte 0 -- -- 82
2017-08-11 05:00:00 8 9 Norte 20 Nordeste 0 -- -- 78
2017-08-11 04:00:00 8.3 15 Nordeste 21 Nordeste 0 -- -- 77
2017-08-11 03:00:00 8.9 17 Nordeste 23 Nordeste 0 -- -- 74
2017-08-11 02:00:00 8.9 14 Nordeste 28 Nordeste 0 -- -- 78
2017-08-11 01:00:00 9.8 15 Nordeste 35 Nordeste 0 -- -- 77
2017-08-11 00:00:00 10.7 15 Nordeste 40 Norte 0 -- -- 74
2017-08-10 23:00:00 11.7 33 Nordeste 44 Norte 0 -- -- 72
2017-08-10 22:00:00 12.8 31 Nordeste 45 Nordeste 0 -- -- 68
2017-08-10 21:00:00 14.7 33 Nordeste 49 Nordeste 0 -- -- 61
2017-08-10 20:00:00 16.8 36 Norte 52 Nordeste 0 -- -- 53
2017-08-10 19:00:00 18.6 28 Nordeste 39 Nordeste 0 -- -- 46
2017-08-10 18:00:00 19.5 23 Nordeste 36 Nordeste 0 -- -- 43
2017-08-10 17:00:00 19.9 23 Nordeste 48 Norte 0 -- -- 41
2017-08-10 16:00:00 19.3 27 Nordeste 52 Nordeste 0 -- -- 43
2017-08-10 15:00:00 18 30 Nordeste 49 Nordeste 0 -- -- 46
2017-08-10 14:00:00 18 26 Nordeste 41 Nordeste 0 -- -- 45
2017-08-10 13:00:00 16.8 25 Nordeste 43 Nordeste 0 -- -- 49
2017-08-10 12:00:00 16 28 Nordeste 43 Nordeste 0 -- -- 50
2017-08-10 11:00:00 14.8 27 Nordeste 37 Norte 0 -- -- 50
2017-08-10 10:00:00 13.5 18 Nordeste 44 Nordeste 0 -- -- 58
2017-08-10 09:00:00 11.8 26 Nordeste 36 Norte 0 -- -- 67
2017-08-10 08:00:00 10 21 Norte 37 Norte 0 -- -- 74
2017-08-10 07:00:00 7.2 12 Norte 21 Norte 0 -- -- 83
2017-08-10 06:00:00 6.4 8 Nordeste 12 Norte 0 -- -- 81
2017-08-10 05:00:00 6.7 4 Norte 26 Nordeste 0 -- -- 80
2017-08-10 04:00:00 6.9 10 Norte 23 Nordeste 0 -- -- 80
2017-08-10 03:00:00 7.8 15 Norte 23 Nordeste 0 -- -- 76
2017-08-10 02:00:00 8 10 Norte 37 Norte 0 -- -- 71
2017-08-10 01:00:00 9.1 33 Norte 41 Norte 0 -- -- 73
2017-08-10 00:00:00 9.6 26 Norte 44 Norte 0 -- -- 68
2017-08-09 23:00:00 10.6 35 Norte 47 Norte 0 -- -- 63
2017-08-09 22:00:00 11.5 26 Nordeste 44 Nordeste 0 -- -- 60
2017-08-09 21:00:00 13.4 33 Norte 42 Nordeste 0 -- -- 55
2017-08-09 20:00:00 14.9 32 Norte 49 Norte 0 -- -- 50
2017-08-09 19:00:00 15.5 36 Nordeste 50 Nordeste 0 -- -- 51
2017-08-09 18:00:00 16 33 Nordeste 48 Nordeste 0 -- -- 51
2017-08-09 17:00:00 15 36 Nordeste 51 Nordeste 0 -- -- 57
2017-08-09 16:00:00 16.3 27 Nordeste 45 Nordeste 0 -- -- 53
2017-08-09 15:00:00 17.1 32 Nordeste 46 Nordeste 0 -- -- 53
2017-08-09 14:00:00 15.8 30 Nordeste 39 Nordeste 0 -- -- 55
2017-08-09 13:00:00 15.5 29 Nordeste 39 Nordeste 0 -- -- 57
2017-08-09 12:00:00 15.8 28 Nordeste 42 Nordeste 0 -- -- 58
2017-08-09 11:00:00 15.8 11 Nordeste 22 Norte 0 -- -- 59
2017-08-09 10:00:00 14.7 14 Nordeste 21 Nordeste 0 -- -- 63
2017-08-09 09:00:00 13.1 14 Nordeste 19 Nordeste 0 -- -- 69
2017-08-09 08:00:00 10.6 3 Nordeste 15 Nordeste 0 -- -- 80
2017-08-09 07:00:00 8.1 4 Norte 12 Norte 0 -- -- 86
2017-08-09 06:00:00 8.4 9 Norte 12 Nordeste 0 -- -- 87
2017-08-09 05:00:00 9.5 8 Nordeste 13 Nordeste 0 -- -- 82
2017-08-09 04:00:00 9.1 8 Norte 15 Este 0 -- -- 82
2017-08-09 03:00:00 9.9 4 Este 13 Sudeste 0 -- -- 81
2017-08-09 02:00:00 10.4 6 Nordeste 27 Nordeste 0 -- -- 79
2017-08-09 01:00:00 11.1 13 Nordeste 21 Nordeste 0 -- -- 76
2017-08-09 00:00:00 12.2 18 Nordeste 27 Nordeste 0 -- -- 71
2017-08-08 23:00:00 13.3 21 Nordeste 31 Nordeste 0 -- -- 67
2017-08-08 22:00:00 13.8 23 Nordeste 46 Nordeste 0 -- -- 66
2017-08-08 21:00:00 15.4 35 Nordeste 46 Nordeste 0 -- -- 60
2017-08-08 20:00:00 19 28 Nordeste 42 Nordeste 0 -- -- 47
2017-08-08 19:00:00 20.3 25 Nordeste 39 Nordeste 0 -- -- 39
2017-08-08 18:00:00 20.3 28 Nordeste 40 Nordeste 0 -- -- 40
2017-08-08 17:00:00 20.3 23 Este 37 Nordeste 0 -- -- 38
2017-08-08 16:00:00 20.1 22 Nordeste 40 Norte 0 -- -- 40
2017-08-08 15:00:00 19.8 27 Nordeste 41 Nordeste 0 -- -- 42
2017-08-08 14:00:00 19.9 22 Nordeste 39 Nordeste 0 -- -- 43
2017-08-08 13:00:00 19.5 13 Nordeste 32 Nordeste 0 -- -- 46
2017-08-08 12:00:00 16.6 15 Nordeste 39 Nordeste 0 -- -- 59
2017-08-08 11:00:00 15.1 26 Nordeste 39 Norte 0 -- -- 65
2017-08-08 10:00:00 15.6 28 Nordeste 37 Nordeste 0 -- -- 67
2017-08-08 09:00:00 13.7 25 Nordeste 35 Nordeste 0 -- -- 76
2017-08-08 08:00:00 13.2 23 Nordeste 31 Nordeste 0 -- -- 81
2017-08-08 07:00:00 12.5 25 Nordeste 35 Nordeste 0 -- -- 86
2017-08-08 06:00:00 13.3 25 Nordeste 40 Nordeste 0 -- -- 86
2017-08-08 05:00:00 13.9 22 Nordeste 39 Nordeste 0 -- -- 87
2017-08-08 04:00:00 14.9 29 Nordeste 40 Nordeste 0 -- -- 87
2017-08-08 03:00:00 15.6 21 Nordeste 38 Nordeste 0 -- -- 84
2017-08-08 02:00:00 17.8 27 Nordeste 36 Nordeste 0 -- -- 78
2017-08-08 01:00:00 19.4 26 Nordeste 33 Nordeste 0 -- -- 75
2017-08-08 00:00:00 22.5 10 Norte 15 Norte 0 -- -- 41
2017-08-07 23:00:00 24.2 2 Oeste 19 Noroeste 0 -- -- 27
2017-08-07 22:00:00 25.3 13 Norte 30 Noroeste 0 -- -- 25
2017-08-07 21:00:00 28 15 Noroeste 33 Sudoeste 0 -- -- 20
2017-08-07 20:00:00 30.2 23 Oeste 41 Sudoeste 0 -- -- 13
2017-08-07 19:00:00 31.3 30 Sudoeste 50 Sudoeste 0 -- -- 14
2017-08-07 18:00:00 32.5 23 Oeste 58 Sudoeste 0 -- -- 19
2017-08-07 17:00:00 30.9 30 Sudoeste 46 Sudoeste 0 -- -- 22
2017-08-07 16:00:00 31 22 Oeste 38 Sudoeste 0 -- -- 24
2017-08-07 15:00:00 31.5 21 Oeste 45 Sudoeste 0 -- -- 23
2017-08-07 14:00:00 30.6 27 Sudoeste 44 Sudoeste 0 -- -- 24
2017-08-07 13:00:00 29 25 Sudoeste 41 Sudoeste 0 -- -- 37
2017-08-07 12:00:00 26.7 12 Sur 36 Sudoeste 0 -- -- 48
2017-08-07 11:00:00 24.4 13 Sudoeste 30 Sudoeste 0 -- -- 58
2017-08-07 10:00:00 23.2 15 Sur 25 Sudoeste 0 -- -- 64
2017-08-07 09:00:00 20.6 8 Sudeste 12 Sudeste 0 -- -- 69
2017-08-07 08:00:00 19 0 Calma 7 Sudeste 0 -- -- 73
2017-08-07 07:00:00 16.8 3 Sudeste 13 Sudeste 0 -- -- 78
2017-08-07 06:00:00 17.7 3 Sur 21 Sudeste 0 -- -- 73
2017-08-07 05:00:00 18.3 13 Sudeste 24 Sudeste 0 -- -- 68
2017-08-07 04:00:00 18.7 8 Sudeste 22 Sur 0 -- -- 66
2017-08-07 03:00:00 19 10 Sur 24 Sur 0 -- -- 65
2017-08-07 02:00:00 19.8 14 Sur 21 Sur 0 -- -- 62
2017-08-07 01:00:00 19.8 8 Sudeste 22 Sur 0 -- -- 59
2017-08-07 00:00:00 19.3 3 Sudoeste 27 Este 0 -- -- 60
2017-08-06 23:00:00 19.5 3 Sudeste 24 Nordeste 0 -- -- 58
2017-08-06 22:00:00 20.4 19 Nordeste 26 Este 0 -- -- 55
2017-08-06 21:00:00 23.1 17 Este 32 Nordeste 0 -- -- 47
2017-08-06 20:00:00 24.6 27 Nordeste 35 Nordeste 0 -- -- 43
2017-08-06 19:00:00 27 15 Este 32 Sudeste 0 -- -- 40
2017-08-06 18:00:00 27.4 20 Sudeste 32 Sudeste 0 -- -- 38
2017-08-06 17:00:00 27.5 18 Sudeste 32 Sudeste 0 -- -- 38
2017-08-06 16:00:00 26.7 15 Sudeste 29 Sudeste 0 -- -- 40
2017-08-06 15:00:00 26.7 16 Sudeste 33 Sudeste 0 -- -- 40
2017-08-06 14:00:00 25.1 14 Nordeste 33 Este 0 -- -- 44
2017-08-06 13:00:00 23.4 14 Nordeste 24 Nordeste 0 -- -- 48
2017-08-06 12:00:00 21.4 13 Nordeste 31 Nordeste 0 -- -- 54
2017-08-06 11:00:00 19.7 15 Nordeste 29 Este 0 -- -- 59
2017-08-06 10:00:00 17.5 20 Nordeste 27 Nordeste 0 -- -- 66
2017-08-06 09:00:00 16.2 16 Nordeste 22 Nordeste 0 -- -- 72
2017-08-06 08:00:00 14.8 9 Nordeste 17 Nordeste 0 -- -- 78
2017-08-06 07:00:00 13.8 6 Este 29 Nordeste 0 -- -- 81
2017-08-06 06:00:00 14.2 8 Este 30 Nordeste 0 -- -- 79
2017-08-06 05:00:00 14.6 13 Nordeste 46 Nordeste 0 -- -- 78
2017-08-06 04:00:00 15.1 33 Nordeste 50 Nordeste 0 -- -- 76
2017-08-06 03:00:00 15.4 40 Nordeste 50 Nordeste 0 -- -- 75
2017-08-06 02:00:00 16.9 24 Nordeste 35 Nordeste 0 -- -- 70
2017-08-06 01:00:00 16.9 25 Nordeste 39 Nordeste 0 -- -- 73
2017-08-06 00:00:00 17 23 Nordeste 40 Nordeste 0 -- -- 75
2017-08-05 23:00:00 18.3 27 Nordeste 42 Nordeste 0 -- -- 72
2017-08-05 22:00:00 19.4 31 Nordeste 47 Nordeste 0 -- -- 69
2017-08-05 21:00:00 21 40 Nordeste 48 Nordeste 0 -- -- 64
2017-08-05 20:00:00 24.1 39 Nordeste 54 Nordeste 0 -- -- 55
2017-08-05 19:00:00 26.9 35 Nordeste 47 Nordeste 0 -- -- 49
2017-08-05 18:00:00 28.3 35 Nordeste 47 Nordeste 0 -- -- 47
2017-08-05 17:00:00 30.2 26 Nordeste 44 Nordeste 0 -- -- 43
2017-08-05 16:00:00 30.3 30 Nordeste 47 Nordeste 0 -- -- 42
2017-08-05 15:00:00 31.9 18 Nordeste 35 Nordeste 0 -- -- 38
2017-08-05 14:00:00 31.1 10 Norte 26 Nordeste 0 -- -- 39
2017-08-05 13:00:00 29.4 18 Nordeste 28 Nordeste 0 -- -- 42
2017-08-05 12:00:00 30.4 4 Nordeste 16 Este 0 -- -- 41
2017-08-05 11:00:00 29.2 4 Sudoeste 11 Sur 0 -- -- 44
2017-08-05 10:00:00 28.1 3 Sudeste 12 Norte 0 -- -- 48
2017-08-05 09:00:00 23.3 5 Norte 10 Noroeste 0 -- -- 61
2017-08-05 08:00:00 18.8 2 Norte 9 Norte 0 -- -- 74
2017-08-05 07:00:00 17.5 8 Norte 16 Nordeste 0 -- -- 80
2017-08-05 06:00:00 18.3 6 Norte 14 Norte 0 -- -- 77
2017-08-05 05:00:00 18.8 11 Norte 15 Norte 0 -- -- 75
2017-08-05 04:00:00 20.6 4 Este 14 Norte 0 -- -- 67
2017-08-05 03:00:00 21.4 5 Este 9 Este 0 -- -- 64
2017-08-05 02:00:00 20.8 2 Norte 9 Nordeste 0 -- -- 68
2017-08-05 01:00:00 21.9 8 Norte 14 Nordeste 0 -- -- 66
2017-08-05 00:00:00 23.1 10 Norte 20 Nordeste 0 -- -- 61
2017-08-04 23:00:00 25 18 Nordeste 27 Nordeste 0 -- -- 54
2017-08-04 22:00:00 26.4 19 Nordeste 26 Nordeste 0 -- -- 49
2017-08-04 21:00:00 29.2 17 Este 27 Este 0 -- -- 42
2017-08-04 20:00:00 31.8 21 Nordeste 35 Nordeste 0 -- -- 37
2017-08-04 19:00:00 33.6 18 Norte 32 Nordeste 0 -- -- 32
2017-08-04 18:00:00 34.4 17 Oeste 33 Oeste 0 -- -- 28
2017-08-04 17:00:00 33.5 14 Noroeste 32 Noroeste 0 -- -- 29
2017-08-04 16:00:00 33.8 12 Oeste 32 Oeste 0 -- -- 30
2017-08-04 15:00:00 32.6 9 Sudoeste 27 Oeste 0 -- -- 31
2017-08-04 14:00:00 31.5 14 Noroeste 24 Oeste 0 -- -- 34
2017-08-04 13:00:00 29.9 13 Noroeste 25 Noroeste 0 -- -- 37
2017-08-04 12:00:00 27.9 16 Noroeste 26 Noroeste 0 -- -- 41
2017-08-04 11:00:00 26.6 13 Noroeste 23 Noroeste 0 -- -- 44
2017-08-04 10:00:00 24.3 13 Noroeste 20 Noroeste 0 -- -- 49
2017-08-04 09:00:00 21.9 10 Noroeste 18 Noroeste 0 -- -- 53
2017-08-04 08:00:00 20.6 5 Norte 21 Noroeste 0 -- -- 54
2017-08-04 07:00:00 19.4 4 Norte 14 Noroeste 0 -- -- 55
2017-08-04 06:00:00 19.7 8 Norte 13 Norte 0 -- -- 50
2017-08-04 05:00:00 21.1 13 Norte 21 Norte 0 -- -- 46
2017-08-04 04:00:00 20.5 8 Norte 14 Norte 0 -- -- 46
2017-08-04 03:00:00 19.5 11 Norte 17 Norte 0 -- -- 59
2017-08-04 02:00:00 20.9 5 Norte 15 Norte 0 -- -- 56
2017-08-04 01:00:00 21.3 6 Norte 15 Norte 0 -- -- 54
2017-08-04 00:00:00 21.8 11 Norte 21 Norte 0 -- -- 43
2017-08-03 23:00:00 24.7 14 Norte 20 Norte 0 -- -- 30
2017-08-03 22:00:00 27.2 12 Noroeste 18 Noroeste 0 -- -- 26
2017-08-03 21:00:00 30.8 12 Noroeste 17 Noroeste 0 -- -- 23
2017-08-03 20:00:00 33.3 10 Noroeste 23 Oeste 0 -- -- 20
2017-08-03 19:00:00 33.9 10 Noroeste 25 Noroeste 0 -- -- 18
2017-08-03 18:00:00 33.9 12 Noroeste 27 Oeste 0 -- -- 18
2017-08-03 17:00:00 33.4 13 Oeste 27 Sudoeste 0 -- -- 19
2017-08-03 16:00:00 33.3 10 Oeste 26 Oeste 0 -- -- 19
2017-08-03 15:00:00 32.6 17 Sudoeste 28 Noroeste 0 -- -- 19
2017-08-03 14:00:00 31.1 10 Oeste 23 Oeste 0 -- -- 21
2017-08-03 13:00:00 31.4 7 Sudoeste 19 Noroeste 0 -- -- 21
2017-08-03 12:00:00 28.2 13 Noroeste 21 Noroeste 0 -- -- 24
2017-08-03 11:00:00 26.1 10 Noroeste 21 Norte 0 -- -- 30
2017-08-03 10:00:00 23.5 13 Norte 19 Norte 0 -- -- 33
2017-08-03 09:00:00 20.8 4 Norte 10 Norte 0 -- -- 50
2017-08-03 08:00:00 17.5 6 Norte 9 Norte 0 -- -- 57
2017-08-03 07:00:00 15.1 5 Norte 6 Nordeste 0 -- -- 68
2017-08-03 06:00:00 16.9 4 Norte 11 Noroeste 0 -- -- 61
2017-08-03 05:00:00 17.5 5 Nordeste 13 Norte 0 -- -- 62
2017-08-03 04:00:00 17.7 6 Norte 11 Oeste 0 -- -- 65
2017-08-03 03:00:00 21 5 Sur 13 Sur 0 -- -- 55
2017-08-03 02:00:00 22.3 2 Noroeste 15 Sur 0 -- -- 46
2017-08-03 01:00:00 21.8 13 Sur 23 Sur 0 -- -- 46
2017-08-03 00:00:00 23.1 6 Sudeste 12 Sudeste 0 -- -- 54
2017-08-02 23:00:00 23.6 0 Calma 14 Sur 0 -- -- 52
2017-08-02 22:00:00 24.3 9 Sur 20 Sur 0 -- -- 48
2017-08-02 21:00:00 26.8 18 Sur 37 Sur 0 -- -- 42
2017-08-02 20:00:00 28.3 26 Sur 47 Sudeste 0 -- -- 41
2017-08-02 19:00:00 30.2 17 Sudeste 37 Sudeste 0 -- -- 34
2017-08-02 18:00:00 29.6 13 Sur 40 Sudeste 0.8 -- -- 34
2017-08-02 17:00:00 28 21 Sudeste 41 Sudeste 0.4 -- -- 44
2017-08-02 16:00:00 31.1 15 Sudeste 35 Sudeste 0 -- -- 29
2017-08-02 15:00:00 29.5 25 Sur 52 Sudeste 0 -- -- 30
2017-08-02 14:00:00 28.3 39 Sur 55 Sur 0 -- -- 31
2017-08-02 13:00:00 27.6 29 Sur 50 Sudeste 0 -- -- 36
2017-08-02 12:00:00 28.5 24 Sur 37 Sur 0 -- -- 39
2017-08-02 11:00:00 27.1 15 Sudoeste 22 Sudoeste 0 -- -- 43
2017-08-02 10:00:00 25.1 8 Sur 14 Sur 0 -- -- 51
2017-08-02 09:00:00 23.9 3 Sur 6 Sudeste 0 -- -- 53
2017-08-02 08:00:00 18.8 4 Sudeste 12 Sudeste 0 -- -- 68
2017-08-02 07:00:00 17.7 4 Este 8 Sudeste 0 -- -- 70
2017-08-02 06:00:00 18.4 5 Este 10 Sudeste 0 -- -- 68
2017-08-02 05:00:00 19 6 Sudeste 22 Sudeste 0 -- -- 67
2017-08-02 04:00:00 20.3 12 Sudeste 31 Sudeste 0 -- -- 64
2017-08-02 03:00:00 20.3 13 Sudeste 23 Sudeste 0 -- -- 65
2017-08-02 02:00:00 19.9 6 Noroeste 11 Sudeste 0 -- -- 66
2017-08-02 01:00:00 21 7 Sudeste 17 Sudeste 0 -- -- 58
2017-08-02 00:00:00 21.8 6 Este 14 Sudeste 0 -- -- 45
2017-08-01 23:00:00 22.9 3 Nordeste 23 Este 0 -- -- 43
2017-08-01 22:00:00 24.4 6 Este 26 Este 0 -- -- 40
2017-08-01 21:00:00 28 13 Sudoeste 29 Sudoeste 0 -- -- 24
2017-08-01 20:00:00 29.8 21 Oeste 34 Sudoeste 0 -- -- 22
2017-08-01 19:00:00 31.1 19 Sudoeste 30 Oeste 0 -- -- 21
2017-08-01 18:00:00 29.3 14 Sudoeste 31 Sudoeste 0 -- -- 22
2017-08-01 17:00:00 30.1 26 Sudoeste 43 Sudoeste 0 -- -- 21
2017-08-01 16:00:00 30.9 14 Sur 30 Sur 0 -- -- 24
2017-08-01 15:00:00 28.9 8 Oeste 22 Oeste 0 -- -- 25
2017-08-01 14:00:00 28.7 10 Oeste 25 Oeste 0 -- -- 27
2017-08-01 13:00:00 30 8 Sudoeste 23 Oeste 0 -- -- 26
2017-08-01 12:00:00 26.3 13 Sur 19 Sur 0 -- -- 39
2017-08-01 11:00:00 24.9 7 Sur 16 Sur 0 -- -- 42
2017-08-01 10:00:00 23.1 5 Sur 9 Nordeste 0 -- -- 48
2017-08-01 09:00:00 19 5 Norte 8 Norte 0 -- -- 60
2017-08-01 08:00:00 15.6 4 Nordeste 9 Norte 0 -- -- 76
2017-08-01 07:00:00 14.7 3 Norte 9 Este 0 -- -- 75
2017-08-01 06:00:00 15.7 7 Norte 10 Noroeste 0 -- -- 71
2017-08-01 05:00:00 17.2 5 Nordeste 10 Norte 0 -- -- 63
2017-08-01 04:00:00 16.4 8 Norte 17 Nordeste 0 -- -- 76
2017-08-01 03:00:00 18.6 10 Norte 14 Norte 0 -- -- 54
2017-08-01 02:00:00 17.7 9 Norte 19 Norte 0 -- -- 76
2017-08-01 01:00:00 19 16 Norte 21 Norte 0 -- -- 72
2017-08-01 00:00:00 21.5 11 Norte 16 Norte 0 -- -- 39
2017-07-31 23:00:00 24 6 Noroeste 10 Nordeste 0 -- -- 23
2017-07-31 22:00:00 24.9 4 Noroeste 16 Oeste 0 -- -- 24
2017-07-31 21:00:00 27.6 11 Oeste 26 Oeste 0 -- -- 21
2017-07-31 20:00:00 30.8 19 Oeste 37 Oeste 0 -- -- 18
2017-07-31 19:00:00 31.4 23 Oeste 45 Oeste 0 -- -- 17
2017-07-31 18:00:00 32.3 30 Oeste 47 Oeste 0 -- -- 17
2017-07-31 17:00:00 32.6 27 Sudoeste 45 Sudoeste 0 -- -- 18
2017-07-31 16:00:00 32.4 24 Sudoeste 59 Oeste 0 -- -- 19
2017-07-31 15:00:00 31.5 25 Sudoeste 55 Sudoeste 0 -- -- 22
2017-07-31 14:00:00 30.8 26 Sudoeste 54 Sudoeste 0 -- -- 29
2017-07-31 13:00:00 29.3 27 Sur 40 Sur 0 -- -- 33
2017-07-31 12:00:00 27.7 19 Sudoeste 28 Sudoeste 0 -- -- 39
2017-07-31 11:00:00 26.1 13 Sur 23 Sudeste 0 -- -- 46
2017-07-31 10:00:00 24.2 10 Sur 17 Sudeste 0 -- -- 53
2017-07-31 09:00:00 22.7 4 Sur 8 Sudeste 0 -- -- 56
2017-07-31 08:00:00 18.4 7 Sudeste 20 Este 0 -- -- 71
2017-07-31 07:00:00 17.3 19 Este 26 Sudeste 0 -- -- 75
2017-07-31 06:00:00 17.5 17 Este 24 Este 0 -- -- 75
2017-07-31 05:00:00 19.5 18 Este 25 Sudeste 0 -- -- 67
2017-07-31 04:00:00 18.6 9 Este 16 Este 0 -- -- 69
2017-07-31 03:00:00 20.5 11 Este 16 Este 0 -- -- 63
2017-07-31 02:00:00 20.8 5 Sudeste 22 Nordeste 0 -- -- 60
2017-07-31 01:00:00 19.8 18 Nordeste 20 Nordeste 0 -- -- 69
2017-07-31 00:00:00 20.7 15 Norte 21 Norte 0 -- -- 66
2017-07-30 23:00:00 22 13 Norte 18 Norte 0 -- -- 60
2017-07-30 22:00:00 24.6 15 Nordeste 30 Norte 0 -- -- 50
2017-07-30 21:00:00 29.5 14 Noroeste 21 Noroeste 0 -- -- 26
2017-07-30 20:00:00 31.6 10 Noroeste 30 Noroeste 0 -- -- 24
2017-07-30 19:00:00 32.1 19 Oeste 38 Oeste 0 -- -- 22
2017-07-30 18:00:00 32 24 Sudoeste 45 Sudoeste 0 -- -- 23
2017-07-30 17:00:00 33.8 24 Oeste 60 Sudoeste 0 -- -- 21
2017-07-30 16:00:00 33.6 35 Oeste 57 Oeste 0 -- -- 20
2017-07-30 15:00:00 32.3 35 Oeste 58 Sudoeste 0 -- -- 21
2017-07-30 14:00:00 32.1 21 Sudoeste 39 Sudoeste 0 -- -- 26
2017-07-30 13:00:00 30.2 21 Sudoeste 36 Sudoeste 0 -- -- 29
2017-07-30 12:00:00 28.3 12 Oeste 23 Sudoeste 0 -- -- 32
2017-07-30 11:00:00 26.4 5 Noroeste 21 Noroeste 0 -- -- 35
2017-07-30 10:00:00 23.6 11 Noroeste 21 Noroeste 0 -- -- 36
2017-07-30 09:00:00 22.4 6 Oeste 12 Noroeste 0 -- -- 43
2017-07-30 08:00:00 19.4 4 Este 13 Noroeste 0 -- -- 46
2017-07-30 07:00:00 19.8 2 Norte 13 Oeste 0 -- -- 42
2017-07-30 06:00:00 19.9 5 Norte 11 Noroeste 0 -- -- 42
2017-07-30 05:00:00 19.7 2 Oeste 5 Oeste 0 -- -- 40
2017-07-30 04:00:00 20.2 0 Calma 5 Sur 0 -- -- 38
2017-07-30 03:00:00 20 0 Calma 4 Sudeste 0 -- -- 39
2017-07-30 02:00:00 20.9 4 Sudeste 13 Sur 0 -- -- 37
2017-07-30 01:00:00 20.9 2 Sur 7 Sudeste 0 -- -- 38
2017-07-30 00:00:00 23.3 5 Nordeste 17 Noroeste 0 -- -- 33
2017-07-29 23:00:00 25.8 13 Noroeste 19 Noroeste 0 -- -- 29
2017-07-29 22:00:00 27.2 16 Noroeste 24 Noroeste 0 -- -- 27
2017-07-29 21:00:00 29.3 10 Noroeste 27 Norte 0 -- -- 24
2017-07-29 20:00:00 31 17 Noroeste 40 Noroeste 0 -- -- 22
2017-07-29 19:00:00 32.7 24 Noroeste 39 Norte 0 -- -- 20
2017-07-29 18:00:00 32.6 16 Oeste 37 Oeste 0 -- -- 21
2017-07-29 17:00:00 32.9 19 Oeste 39 Oeste 0 -- -- 23
2017-07-29 16:00:00 32.4 27 Oeste 41 Oeste 0 -- -- 24
2017-07-29 15:00:00 31.2 19 Noroeste 35 Noroeste 0 -- -- 27
2017-07-29 14:00:00 30.6 15 Oeste 36 Oeste 0 -- -- 27
2017-07-29 13:00:00 29.8 14 Noroeste 27 Oeste 0 -- -- 28
2017-07-29 12:00:00 29.2 7 Sur 17 Sur 0 -- -- 31
2017-07-29 11:00:00 28 5 Este 11 Oeste 0 -- -- 33
2017-07-29 10:00:00 26.1 4 Noroeste 8 Norte 0 -- -- 35
2017-07-29 09:00:00 22.3 6 Norte 10 Norte 0 -- -- 45
2017-07-29 08:00:00 18.1 7 Norte 13 Norte 0 -- -- 53
2017-07-29 07:00:00 15.7 0 Calma 13 Norte 0 -- -- 59
2017-07-29 06:00:00 16 0 Calma 14 Norte 0 -- -- 61
2017-07-29 05:00:00 17.2 3 Norte 11 Norte 0 -- -- 61
2017-07-29 04:00:00 17.2 3 Norte 11 Norte 0 -- -- 53
2017-07-29 03:00:00 19 8 Norte 15 Norte 0 -- -- 47
2017-07-29 02:00:00 19.1 13 Norte 20 Nordeste 0 -- -- 49
2017-07-29 01:00:00 19.8 12 Norte 17 Nordeste 0 -- -- 48
2017-07-29 00:00:00 21.2 15 Nordeste 22 Nordeste 0 -- -- 52
2017-07-28 23:00:00 21.9 11 Norte 17 Este 0 -- -- 53
2017-07-28 22:00:00 25.9 14 Este 28 Nordeste 0 -- -- 45
2017-07-28 21:00:00 28.2 22 Nordeste 32 Nordeste 0 -- -- 38
2017-07-28 20:00:00 32.8 11 Oeste 27 Noroeste 0 -- -- 21
2017-07-28 19:00:00 33.1 18 Noroeste 35 Oeste 0 -- -- 22
2017-07-28 18:00:00 33.5 17 Oeste 34 Oeste 0 -- -- 24
2017-07-28 17:00:00 32.7 17 Noroeste 35 Oeste 0 -- -- 24
2017-07-28 16:00:00 32.2 16 Noroeste 43 Sudoeste 0 -- -- 26
2017-07-28 15:00:00 31.4 12 Oeste 31 Sudoeste 0 -- -- 27
2017-07-28 14:00:00 30.7 13 Oeste 27 Oeste 0 -- -- 26
2017-07-28 13:00:00 28.5 13 Oeste 29 Oeste 0 -- -- 34
2017-07-28 12:00:00 26.3 9 Oeste 19 Noroeste 0 -- -- 42
2017-07-28 11:00:00 23.9 12 Noroeste 21 Noroeste 0 -- -- 49
2017-07-28 10:00:00 21.4 13 Noroeste 17 Noroeste 0 -- -- 57
2017-07-28 09:00:00 20.6 5 Norte 10 Norte 0 -- -- 61
2017-07-28 08:00:00 16.2 8 Norte 11 Norte 0 -- -- 76
2017-07-28 07:00:00 14.7 3 Nordeste 12 Norte 0 -- -- 82
2017-07-28 06:00:00 15 11 Norte 14 Norte 0 -- -- 81
2017-07-28 05:00:00 15.5 9 Norte 14 Norte 0 -- -- 79
2017-07-28 04:00:00 15.9 9 Norte 16 Norte 0 -- -- 78
2017-07-28 03:00:00 17.1 11 Nordeste 15 Norte 0 -- -- 73
2017-07-28 02:00:00 17.6 9 Norte 17 Nordeste 0 -- -- 71
2017-07-28 01:00:00 18.3 11 Norte 20 Nordeste 0 -- -- 65
2017-07-28 00:00:00 19.5 15 Norte 27 Nordeste 0 -- -- 60
2017-07-27 23:00:00 22.7 19 Nordeste 26 Nordeste 0 -- -- 48
2017-07-27 22:00:00 24.9 20 Nordeste 29 Nordeste 0 -- -- 37
2017-07-27 21:00:00 30.1 17 Norte 34 Noroeste 0 -- -- 20
2017-07-27 20:00:00 31.7 22 Noroeste 37 Noroeste 0 -- -- 19
2017-07-27 19:00:00 32.5 23 Noroeste 42 Noroeste 0 -- -- 19
2017-07-27 18:00:00 32.8 21 Noroeste 40 Noroeste 0 -- -- 20
2017-07-27 17:00:00 32.5 22 Noroeste 41 Noroeste 0 -- -- 20
2017-07-27 16:00:00 32.3 21 Noroeste 41 Noroeste 0 -- -- 21
2017-07-27 15:00:00 31.6 20 Noroeste 44 Noroeste 0 -- -- 21
2017-07-27 14:00:00 30.3 23 Noroeste 38 Noroeste 0 -- -- 25
2017-07-27 13:00:00 29.3 16 Oeste 36 Oeste 0 -- -- 30
2017-07-27 12:00:00 27.5 13 Noroeste 26 Noroeste 0 -- -- 33
2017-07-27 11:00:00 26.3 5 Sudoeste 14 Sur 0 -- -- 42
2017-07-27 10:00:00 24.5 6 Sur 9 Sur 0 -- -- 45
2017-07-27 09:00:00 19.5 5 Nordeste 12 Norte 0 -- -- 63
2017-07-27 08:00:00 15.2 6 Norte 14 Norte 0 -- -- 76
2017-07-27 07:00:00 13.1 7 Norte 8 Norte 0 -- -- 83
2017-07-27 06:00:00 13.8 3 Nordeste 8 Nordeste 0 -- -- 82
2017-07-27 05:00:00 14.3 2 Nordeste 10 Norte 0 -- -- 77
2017-07-27 04:00:00 14.4 5 Norte 12 Nordeste 0 -- -- 80
2017-07-27 03:00:00 15.2 8 Este 12 Este 0 -- -- 74
2017-07-27 02:00:00 15.5 8 Norte 9 Norte 0 -- -- 74
2017-07-27 01:00:00 17 4 Nordeste 8 Norte 0 -- -- 69
2017-07-27 00:00:00 18.4 3 Norte 9 Norte 0 -- -- 65
2017-07-26 23:00:00 19.2 8 Norte 27 Nordeste 0 -- -- 62
2017-07-26 22:00:00 21.2 18 Nordeste 30 Nordeste 0 -- -- 55
2017-07-26 21:00:00 23.7 24 Nordeste 34 Nordeste 0 -- -- 46
2017-07-26 20:00:00 25.9 26 Nordeste 38 Nordeste 0 -- -- 38
2017-07-26 19:00:00 26.7 21 Nordeste 37 Nordeste 0 -- -- 38
2017-07-26 18:00:00 27.9 22 Nordeste 33 Nordeste 0 -- -- 36
2017-07-26 17:00:00 28.1 15 Este 33 Nordeste 0 -- -- 36
2017-07-26 16:00:00 27.5 21 Nordeste 31 Nordeste 0 -- -- 35
2017-07-26 15:00:00 26.8 19 Norte 31 Norte 0 -- -- 37
2017-07-26 14:00:00 25.2 16 Nordeste 26 Norte 0 -- -- 40
2017-07-26 13:00:00 23.2 13 Norte 27 Noroeste 0 -- -- 44
2017-07-26 12:00:00 21.5 12 Noroeste 20 Noroeste 0 -- -- 46
2017-07-26 11:00:00 20.3 12 Norte 20 Norte 0 -- -- 49
2017-07-26 10:00:00 18.3 10 Noroeste 18 Norte 0 -- -- 52
2017-07-26 09:00:00 15.5 10 Norte 15 Norte 0 -- -- 61
2017-07-26 08:00:00 10.1 7 Norte 13 Nordeste 0 -- -- 85
2017-07-26 07:00:00 9.3 8 Nordeste 11 Nordeste 0 -- -- 88
2017-07-26 06:00:00 9.5 6 Noroeste 14 Nordeste 0 -- -- 88
2017-07-26 05:00:00 9.8 10 Norte 21 Norte 0 -- -- 86
2017-07-26 04:00:00 10.3 12 Noroeste 18 Norte 0 -- -- 83
2017-07-26 03:00:00 10.8 14 Norte 27 Norte 0 -- -- 82
2017-07-26 02:00:00 11.6 20 Nordeste 29 Nordeste 0 -- -- 78
2017-07-26 01:00:00 12.3 17 Nordeste 29 Norte 0 -- -- 75
2017-07-26 00:00:00 12.9 23 Norte 42 Norte 0 -- -- 73
2017-07-25 23:00:00 13.9 36 Nordeste 46 Nordeste 0 -- -- 68
2017-07-25 22:00:00 14.9 19 Nordeste 39 Nordeste 0 -- -- 65
2017-07-25 21:00:00 17.2 34 Nordeste 50 Nordeste 0 -- -- 56
2017-07-25 20:00:00 18.1 37 Nordeste 48 Nordeste 0 -- -- 52
2017-07-25 19:00:00 19.1 30 Nordeste 43 Nordeste 0 -- -- 48
2017-07-25 18:00:00 20.9 32 Nordeste 48 Nordeste 0 -- -- 43
2017-07-25 17:00:00 21.4 31 Nordeste 51 Nordeste 0 -- -- 42
2017-07-25 16:00:00 21.5 33 Nordeste 51 Nordeste 0 -- -- 43
2017-07-25 15:00:00 20.9 31 Nordeste 47 Norte 0 -- -- 44
2017-07-25 14:00:00 20.1 30 Norte 45 Nordeste 0 -- -- 45
2017-07-25 13:00:00 17.9 29 Nordeste 51 Nordeste 0 -- -- 48
2017-07-25 12:00:00 16.8 34 Nordeste 51 Nordeste 0 -- -- 53
2017-07-25 11:00:00 15.8 35 Nordeste 49 Nordeste 0 -- -- 58
2017-07-25 10:00:00 14.5 32 Nordeste 42 Nordeste 0 -- -- 64
2017-07-25 09:00:00 13.1 28 Nordeste 40 Nordeste 0 -- -- 70
2017-07-25 08:00:00 12.9 31 Nordeste 42 Nordeste 0 -- -- 73
2017-07-25 07:00:00 11.4 21 Nordeste 41 Nordeste 0 -- -- 78
2017-07-25 06:00:00 12.3 31 Nordeste 46 Nordeste 0 -- -- 74
2017-07-25 05:00:00 12.4 27 Nordeste 39 Nordeste 0 -- -- 77
2017-07-25 04:00:00 12.4 27 Nordeste 51 Nordeste 0 -- -- 80
2017-07-25 03:00:00 12.6 27 Nordeste 38 Nordeste 0 -- -- 79
2017-07-25 02:00:00 12.8 22 Nordeste 34 Norte 0 -- -- 80
2017-07-25 01:00:00 13.6 22 Nordeste 30 Norte 0 -- -- 82
2017-07-25 00:00:00 14.1 19 Nordeste 46 Nordeste 0 -- -- 80
2017-07-24 23:00:00 14.5 26 Nordeste 45 Nordeste 0 -- -- 76
2017-07-24 22:00:00 15.8 34 Nordeste 52 Norte 0 -- -- 70
2017-07-24 21:00:00 18.3 44 Norte 59 Norte 0 -- -- 60
2017-07-24 20:00:00 20.6 45 Norte 59 Norte 0 -- -- 51
2017-07-24 19:00:00 22.7 39 Nordeste 52 Nordeste 0 -- -- 48
2017-07-24 18:00:00 23.7 37 Nordeste 50 Nordeste 0 -- -- 42
2017-07-24 17:00:00 25.6 27 Nordeste 39 Nordeste 0 -- -- 39
2017-07-24 16:00:00 24.9 21 Nordeste 37 Este 0 -- -- 38
2017-07-24 15:00:00 23.7 18 Norte 37 Norte 0 -- -- 38
2017-07-24 14:00:00 23.8 18 Nordeste 35 Norte 0 -- -- 39
2017-07-24 13:00:00 23.4 19 Nordeste 36 Norte 0 -- -- 42
2017-07-24 12:00:00 22 22 Norte 35 Norte 0 -- -- 44
2017-07-24 11:00:00 20.7 12 Norte 24 Norte 0 -- -- 55
2017-07-24 10:00:00 19.2 12 Norte 19 Norte 0 -- -- 61
2017-07-24 09:00:00 17.2 11 Norte 14 Norte 0 -- -- 71
2017-07-24 08:00:00 16.2 3 Norte 6 Noroeste 0 -- -- 74
2017-07-24 07:00:00 13.2 6 Norte 14 Nordeste 0 -- -- 85
2017-07-24 06:00:00 14.1 12 Norte 15 Nordeste 0 -- -- 82
2017-07-24 05:00:00 14.2 7 Nordeste 27 Nordeste 0 -- -- 79
2017-07-24 04:00:00 14.8 11 Nordeste 28 Nordeste 0 -- -- 75
2017-07-24 03:00:00 15.3 14 Nordeste 28 Nordeste 0 -- -- 72
2017-07-24 02:00:00 15.5 14 Nordeste 39 Nordeste 0 -- -- 70
2017-07-24 01:00:00 16 32 Nordeste 42 Nordeste 0 -- -- 69
2017-07-24 00:00:00 16.9 27 Nordeste 42 Nordeste 0 -- -- 66
2017-07-23 23:00:00 18.4 30 Nordeste 37 Nordeste 0 -- -- 59
2017-07-23 22:00:00 20.2 28 Nordeste 37 Nordeste 0 -- -- 53
2017-07-23 21:00:00 22.5 26 Nordeste 33 Nordeste 0 -- -- 47
2017-07-23 20:00:00 25.6 20 Nordeste 39 Nordeste 0 -- -- 39
2017-07-23 19:00:00 26.2 26 Nordeste 39 Norte 0 -- -- 37
2017-07-23 18:00:00 26.7 25 Nordeste 32 Nordeste 0 -- -- 36
2017-07-23 17:00:00 29.7 16 Noroeste 41 Noroeste 0 -- -- 32
2017-07-23 16:00:00 29.4 16 Noroeste 31 Norte 0 -- -- 26
2017-07-23 15:00:00 28.6 17 Norte 33 Noroeste 0 -- -- 29
2017-07-23 14:00:00 28.1 10 Sur 17 Sudeste 0 -- -- 37
2017-07-23 13:00:00 26.7 5 Nordeste 14 Sur 0 -- -- 43
2017-07-23 12:00:00 26.2 3 Sur 13 Sudeste 0 -- -- 48
2017-07-23 11:00:00 23.9 8 Sur 15 Sur 0 -- -- 55
2017-07-23 10:00:00 21.5 2 Sudeste 10 Nordeste 0 -- -- 61
2017-07-23 09:00:00 17.1 9 Nordeste 17 Nordeste 0 -- -- 77
2017-07-23 08:00:00 13.8 14 Nordeste 18 Nordeste 0 -- -- 89
2017-07-23 07:00:00 11.9 8 Norte 13 Norte 0 -- -- 93
2017-07-23 06:00:00 12.6 8 Norte 12 Nordeste 0 -- -- 91
2017-07-23 05:00:00 13.2 10 Norte 14 Nordeste 0 -- -- 88
2017-07-23 04:00:00 13.4 12 Norte 18 Norte 0 -- -- 87
2017-07-23 03:00:00 14.1 12 Norte 17 Nordeste 0 -- -- 84
2017-07-23 02:00:00 15.2 13 Nordeste 21 Nordeste 0 -- -- 79
2017-07-23 01:00:00 16.4 16 Norte 26 Norte 0 -- -- 74
2017-07-23 00:00:00 18 20 Norte 26 Norte 0 -- -- 69